createdAt,value
2018-11-26T00:00:15.490Z,22.15
2018-11-26T00:02:43.711Z,20.15
2018-11-26T00:05:11.956Z,21.33
2018-11-26T00:07:40.211Z,18.10
2018-11-26T00:10:19.680Z,22.00
2018-11-26T00:12:47.893Z,19.20
2018-11-26T00:15:16.087Z,22.90
2018-11-26T00:17:44.299Z,16.63
2018-11-26T00:20:12.487Z,25.88
2018-11-26T00:22:40.710Z,16.90
2018-11-26T00:25:08.966Z,26.17
2018-11-26T00:27:37.223Z,19.15
2018-11-26T00:30:06.610Z,20.50
2018-11-26T00:32:34.824Z,18.47
2018-11-26T00:35:03.019Z,20.97
2018-11-26T00:37:31.202Z,21.17
2018-11-26T00:39:59.410Z,15.90
2018-11-26T00:42:27.659Z,18.05
2018-11-26T00:44:55.871Z,21.23
2018-11-26T00:47:24.126Z,17.45
2018-11-26T00:49:52.327Z,19.48
2018-11-26T00:52:20.535Z,21.77
2018-11-26T00:54:48.778Z,20.85
2018-11-26T00:57:16.956Z,20.82
2018-11-26T00:59:45.221Z,19.27
2018-11-26T01:02:13.433Z,18.65
2018-11-26T01:04:41.703Z,18.37
2018-11-26T01:07:09.957Z,19.62
2018-11-26T01:09:38.214Z,21.62
2018-11-26T01:12:06.423Z,23.02
2018-11-26T01:14:34.705Z,23.40
2018-11-26T01:17:02.915Z,17.92
2018-11-26T01:19:31.137Z,20.15
2018-11-26T01:21:59.367Z,22.83
2018-11-26T01:24:27.577Z,20.83
2018-11-26T01:26:55.775Z,23.50
2018-11-26T01:29:24.010Z,21.20
2018-11-26T01:31:52.267Z,25.50
2018-11-26T01:34:20.483Z,23.87
2018-11-26T01:36:48.668Z,22.33
2018-11-26T01:39:17.571Z,20.48
2018-11-26T01:41:45.784Z,20.12
2018-11-26T01:44:13.996Z,25.40
2018-11-26T01:46:42.243Z,21.17
2018-11-26T01:49:10.460Z,22.37
2018-11-26T01:51:38.702Z,22.20
2018-11-26T01:54:07.284Z,21.12
2018-11-26T01:56:35.495Z,19.67
2018-11-26T01:59:03.734Z,20.70
2018-11-26T02:01:31.924Z,19.23
2018-11-26T02:04:00.133Z,25.70
2018-11-26T02:06:29.072Z,29.92
2018-11-26T02:08:57.279Z,23.87
2018-11-26T02:11:25.521Z,26.80
2018-11-26T02:13:53.741Z,26.70
2018-11-26T02:16:21.974Z,25.55
2018-11-26T02:18:50.155Z,25.50
2018-11-26T02:21:18.358Z,24.15
2018-11-26T02:23:46.571Z,26.48
2018-11-26T02:26:14.767Z,24.85
2018-11-26T02:28:42.961Z,24.10
2018-11-26T02:31:11.139Z,19.62
2018-11-26T02:33:39.343Z,22.55
2018-11-26T02:36:07.534Z,21.47
2018-11-26T02:38:35.728Z,21.07
2018-11-26T02:41:03.935Z,15.33
2018-11-26T02:43:32.235Z,14.18
2018-11-26T02:46:00.414Z,16.23
2018-11-26T02:48:28.609Z,17.10
2018-11-26T02:50:56.795Z,12.80
2018-11-26T02:53:24.971Z,15.53
2018-11-26T02:55:53.471Z,14.40
2018-11-26T02:58:21.651Z,22.10
2018-11-26T03:00:49.840Z,16.50
2018-11-26T03:03:18.019Z,15.38
2018-11-26T03:05:46.221Z,13.40
2018-11-26T03:08:14.458Z,15.32
2018-11-26T03:10:42.687Z,14.23
2018-11-26T03:13:10.866Z,17.95
2018-11-26T03:15:39.100Z,13.20
2018-11-26T03:18:07.291Z,12.07
2018-11-26T03:20:35.487Z,10.75
2018-11-26T03:23:03.655Z,12.30
2018-11-26T03:25:31.856Z,11.60
2018-11-26T03:28:00.045Z,8.90
2018-11-26T03:30:28.254Z,12.82
2018-11-26T03:32:56.448Z,15.40
2018-11-26T03:35:24.649Z,10.65
2018-11-26T03:37:52.847Z,8.48
2018-11-26T03:40:21.056Z,10.60
2018-11-26T03:42:49.251Z,10.25
2018-11-26T03:45:18.275Z,9.28
2018-11-26T03:47:46.487Z,12.15
2018-11-26T03:50:14.792Z,12.07
2018-11-26T03:52:43.911Z,10.53
2018-11-26T03:55:12.437Z,11.35
2018-11-26T03:57:40.656Z,11.22
2018-11-26T04:00:10.492Z,10.75
2018-11-26T04:02:38.688Z,8.85
2018-11-26T04:05:07.731Z,8.78
2018-11-26T04:07:35.938Z,10.38
2018-11-26T04:10:05.005Z,13.08
2018-11-26T04:12:33.206Z,17.85
2018-11-26T04:15:01.447Z,14.80
2018-11-26T04:17:29.651Z,12.60
2018-11-26T04:19:57.865Z,8.75
2018-11-26T04:22:26.055Z,10.40
2018-11-26T04:24:54.300Z,12.85
2018-11-26T04:27:22.503Z,10.93
2018-11-26T04:29:50.708Z,11.60
2018-11-26T04:32:18.906Z,11.60
2018-11-26T04:34:47.152Z,13.20
2018-11-26T04:37:15.335Z,9.90
2018-11-26T04:39:43.533Z,11.93
2018-11-26T04:42:11.744Z,13.13
2018-11-26T04:44:39.932Z,12.95
2018-11-26T04:47:08.128Z,15.65
2018-11-26T04:49:36.324Z,15.98
2018-11-26T04:52:04.687Z,15.60
2018-11-26T04:54:32.882Z,11.43
2018-11-26T04:57:01.089Z,12.82
2018-11-26T04:59:29.302Z,15.13
2018-11-26T05:01:57.499Z,13.05
2018-11-26T05:04:25.740Z,13.72
2018-11-26T05:06:53.942Z,10.75
2018-11-26T05:09:22.127Z,13.70
2018-11-26T05:11:50.347Z,14.40
2018-11-26T05:14:18.541Z,13.90
2018-11-26T05:16:46.744Z,13.00
2018-11-26T05:19:14.943Z,18.95
2018-11-26T05:21:43.165Z,12.30
2018-11-26T05:24:11.375Z,10.75
2018-11-26T05:26:39.567Z,10.13
2018-11-26T05:29:07.775Z,9.93
2018-11-26T05:31:35.980Z,10.48
2018-11-26T05:34:04.184Z,9.75
2018-11-26T05:36:32.371Z,12.15
2018-11-26T05:39:00.572Z,7.90
2018-11-26T05:41:28.772Z,8.83
2018-11-26T05:43:56.983Z,8.63
2018-11-26T05:46:25.188Z,9.65
2018-11-26T05:48:53.387Z,13.03
2018-11-26T05:51:21.589Z,7.78
2018-11-26T05:53:49.799Z,13.40
2018-11-26T05:56:18.003Z,11.38
2018-11-26T05:58:46.207Z,14.25
2018-11-26T06:01:14.422Z,11.55
2018-11-26T06:03:42.636Z,9.95
2018-11-26T06:06:10.827Z,9.83
2018-11-26T06:08:39.031Z,10.53
2018-11-26T06:11:07.223Z,23.27
2018-11-26T06:13:35.422Z,10.65
2018-11-26T06:16:03.612Z,9.78
2018-11-26T06:18:31.823Z,9.63
2018-11-26T06:21:00.030Z,8.10
2018-11-26T06:23:28.233Z,7.83
2018-11-26T06:25:56.424Z,6.45
2018-11-26T06:28:24.642Z,9.40
2018-11-26T06:30:52.842Z,9.58
2018-11-26T06:33:21.040Z,7.35
2018-11-26T06:35:49.232Z,8.15
2018-11-26T06:38:17.427Z,9.08
2018-11-26T06:40:45.624Z,16.17
2018-11-26T06:43:13.887Z,13.62
2018-11-26T06:45:42.114Z,7.87
2018-11-26T06:48:10.331Z,9.28
2018-11-26T06:50:38.534Z,8.73
2018-11-26T06:53:07.119Z,8.18
2018-11-26T06:55:35.342Z,8.70
2018-11-26T06:58:03.554Z,7.75
2018-11-26T07:00:31.811Z,11.30
2018-11-26T07:03:00.015Z,6.53
2018-11-26T07:05:28.216Z,5.47
2018-11-26T07:07:56.421Z,7.35
2018-11-26T07:10:24.618Z,6.12
2018-11-26T07:12:52.791Z,7.95
2018-11-26T07:15:21.971Z,9.98
2018-11-26T07:17:50.927Z,7.95
2018-11-26T07:20:20.057Z,9.73
2018-11-26T07:22:48.251Z,8.60
2018-11-26T07:25:18.763Z,8.65
2018-11-26T07:27:48.371Z,8.08
2018-11-26T07:30:19.633Z,12.47
2018-11-26T07:32:47.827Z,10.48
2018-11-26T07:35:16.327Z,9.50
2018-11-26T07:37:44.523Z,9.20
2018-11-26T07:40:16.701Z,9.00
2018-11-26T07:42:49.564Z,7.55
2018-11-26T07:45:17.745Z,9.75
2018-11-26T07:47:45.952Z,8.80
2018-11-26T07:50:15.224Z,11.43
2018-11-26T07:52:43.399Z,8.40
2018-11-26T07:55:14.596Z,10.45
2018-11-26T07:57:42.816Z,9.40
2018-11-26T08:00:13.148Z,10.28
2018-11-26T08:02:41.517Z,12.13
2018-11-26T08:05:11.121Z,10.55
2018-11-26T08:07:39.468Z,11.28
2018-11-26T08:10:10.888Z,10.57
2018-11-26T08:12:39.115Z,12.50
2018-11-26T08:15:10.321Z,14.30
2018-11-26T08:17:38.669Z,16.20
2018-11-26T08:20:07.994Z,16.00
2018-11-26T08:22:36.247Z,11.35
2018-11-26T08:25:06.178Z,12.85
2018-11-26T08:27:34.388Z,11.38
2018-11-26T08:30:02.639Z,12.35
2018-11-26T08:32:34.194Z,13.03
2018-11-26T08:34:59.089Z,12.28
2018-11-26T08:37:33.339Z,11.50
2018-11-26T08:40:07.055Z,11.25
2018-11-26T08:42:40.996Z,12.90
2018-11-26T08:45:16.573Z,10.65
2018-11-26T08:47:49.067Z,12.50
2018-11-26T08:50:17.290Z,12.10
2018-11-26T08:52:45.520Z,9.80
2018-11-26T08:55:13.724Z,12.75
2018-11-26T08:57:41.956Z,10.93
2018-11-26T09:00:11.145Z,9.75
2018-11-26T09:02:48.119Z,12.00
2018-11-26T09:05:24.162Z,10.75
2018-11-26T09:07:50.973Z,10.00
2018-11-26T09:10:19.236Z,7.47
2018-11-26T09:12:47.452Z,8.50
2018-11-26T09:15:15.659Z,6.85
2018-11-26T09:17:43.865Z,6.67
2018-11-26T09:20:12.099Z,8.65
2018-11-26T09:22:40.310Z,6.80
2018-11-26T09:25:10.764Z,9.23
2018-11-26T09:27:39.033Z,7.67
2018-11-26T09:30:11.016Z,6.50
2018-11-26T09:32:39.437Z,7.05
2018-11-26T09:35:09.496Z,6.72
2018-11-26T09:37:37.760Z,7.80
2018-11-26T09:40:07.515Z,7.33
2018-11-26T09:42:35.736Z,9.45
2018-11-26T09:45:04.385Z,6.45
2018-11-26T09:47:32.629Z,9.28
2018-11-26T09:50:00.864Z,8.33
2018-11-26T09:52:29.098Z,8.08
2018-11-26T09:54:57.311Z,8.65
2018-11-26T09:57:25.524Z,8.13
2018-11-26T09:59:53.743Z,10.20
2018-11-26T10:02:21.990Z,11.63
2018-11-26T10:04:50.210Z,11.03
2018-11-26T10:07:18.470Z,8.18
2018-11-26T10:09:46.674Z,13.68
2018-11-26T10:12:14.917Z,10.95
2018-11-26T10:14:43.141Z,12.37
2018-11-26T10:17:11.352Z,11.05
2018-11-26T10:19:39.651Z,12.20
2018-11-26T10:22:07.876Z,12.95
2018-11-26T10:24:36.073Z,12.85
2018-11-26T10:27:04.388Z,10.13
2018-11-26T10:29:32.595Z,10.98
2018-11-26T10:32:00.800Z,11.68
2018-11-26T10:34:29.012Z,10.80
2018-11-26T10:36:57.253Z,11.37
2018-11-26T10:39:25.482Z,10.35
2018-11-26T10:41:53.681Z,7.87
2018-11-26T10:44:21.871Z,8.00
2018-11-26T10:46:50.089Z,13.70
2018-11-26T10:49:18.299Z,7.50
2018-11-26T10:51:46.530Z,5.50
2018-11-26T10:54:14.728Z,8.90
2018-11-26T10:56:42.944Z,7.85
2018-11-26T10:59:11.156Z,5.80
2018-11-26T11:01:43.888Z,5.83
2018-11-26T11:04:12.100Z,5.45
2018-11-26T11:06:40.293Z,6.62
2018-11-26T11:09:09.003Z,7.40
2018-11-26T11:11:37.220Z,5.55
2018-11-26T11:14:05.512Z,4.37
2018-11-26T11:16:33.711Z,5.50
2018-11-26T11:19:01.907Z,4.67
2018-11-26T11:21:30.101Z,4.70
2018-11-26T11:23:58.283Z,4.10
2018-11-26T11:26:28.210Z,7.37
2018-11-26T11:28:55.169Z,4.60
2018-11-26T11:31:23.381Z,4.17
2018-11-26T11:33:51.575Z,8.98
2018-11-26T11:36:19.770Z,6.47
2018-11-26T11:38:48.045Z,6.35
2018-11-26T11:41:16.265Z,4.47
2018-11-26T11:43:44.543Z,4.75
2018-11-26T11:46:12.746Z,5.25
2018-11-26T11:48:40.990Z,4.50
2018-11-26T11:51:09.218Z,4.75
2018-11-26T11:53:37.467Z,3.43
2018-11-26T11:56:06.240Z,3.50
2018-11-26T11:58:34.486Z,3.37
2018-11-26T12:01:02.844Z,4.15
2018-11-26T12:03:31.100Z,3.12
2018-11-26T12:05:59.359Z,2.70
2018-11-26T12:08:27.635Z,3.55
2018-11-26T12:10:55.961Z,2.90
2018-11-26T12:13:27.728Z,3.00
2018-11-26T12:15:56.080Z,4.23
2018-11-26T12:18:24.413Z,2.80
2018-11-26T12:20:53.311Z,2.70
2018-11-26T12:23:21.619Z,2.30
2018-11-26T12:25:50.007Z,2.50
2018-11-26T12:28:18.284Z,2.27
2018-11-26T12:30:46.937Z,1.82
2018-11-26T12:33:15.176Z,1.90
2018-11-26T12:35:43.472Z,1.67
2018-11-26T12:38:11.700Z,1.92
2018-11-26T12:40:39.938Z,2.00
2018-11-26T12:43:08.206Z,2.15
2018-11-26T12:45:36.458Z,3.30
2018-11-26T12:48:04.899Z,2.25
2018-11-26T12:50:33.428Z,2.50
2018-11-26T12:53:01.765Z,2.30
2018-11-26T12:55:30.130Z,3.90
2018-11-26T12:57:59.020Z,2.05
2018-11-26T13:00:28.469Z,2.80
2018-11-26T13:03:01.010Z,4.58
2018-11-26T13:05:29.253Z,5.80
2018-11-26T13:07:57.526Z,2.85
2018-11-26T13:10:25.772Z,5.40
2018-11-26T13:12:56.278Z,1.60
2018-11-26T13:15:25.771Z,3.90
2018-11-26T13:17:54.010Z,2.47
2018-11-26T13:20:23.952Z,2.00
2018-11-26T13:22:52.719Z,2.10
2018-11-26T13:25:22.031Z,2.17
2018-11-26T13:27:52.447Z,4.27
2018-11-26T13:30:23.706Z,2.30
2018-11-26T13:32:53.225Z,1.90
2018-11-26T13:35:21.474Z,2.17
2018-11-26T13:37:49.748Z,2.33
2018-11-26T13:40:18.558Z,3.50
2018-11-26T13:42:46.915Z,1.80
2018-11-26T13:45:16.626Z,2.08
2018-11-26T13:47:44.879Z,1.60
2018-11-26T13:50:18.406Z,2.65
2018-11-26T13:52:46.736Z,1.98
2018-11-26T13:55:14.968Z,1.65
2018-11-26T13:57:43.211Z,2.42
2018-11-26T14:00:13.498Z,2.20
2018-11-26T14:02:41.725Z,1.42
2018-11-26T14:05:11.219Z,1.70
2018-11-26T14:07:39.450Z,1.65
2018-11-26T14:10:11.189Z,2.25
2018-11-26T14:12:39.605Z,1.50
2018-11-26T14:15:10.723Z,1.45
2018-11-26T14:17:38.950Z,2.20
2018-11-26T14:20:11.606Z,11.75
2018-11-26T14:22:39.840Z,1.60
2018-11-26T14:25:12.400Z,3.58
2018-11-26T14:27:41.411Z,1.67
2018-11-26T14:30:16.029Z,1.57
2018-11-26T14:32:44.266Z,1.80
2018-11-26T14:35:12.520Z,1.50
2018-11-26T14:37:43.068Z,1.60
2018-11-26T14:40:17.851Z,4.50
2018-11-26T14:42:46.095Z,1.50
2018-11-26T14:45:14.634Z,2.35
2018-11-26T14:47:43.628Z,4.05
2018-11-26T14:50:13.030Z,2.37
2018-11-26T14:52:42.281Z,2.20
2018-11-26T14:55:13.011Z,2.45
2018-11-26T14:57:41.333Z,4.05
2018-11-26T15:00:12.678Z,5.95
2018-11-26T15:02:40.937Z,4.00
2018-11-26T15:05:09.387Z,3.75
2018-11-26T15:07:37.676Z,2.30
2018-11-26T15:10:08.958Z,4.67
2018-11-26T15:12:37.320Z,5.47
2018-11-26T15:15:07.910Z,2.37
2018-11-26T15:17:36.186Z,4.83
2018-11-26T15:20:07.290Z,2.40
2018-11-26T15:22:35.549Z,2.85
2018-11-26T15:25:03.894Z,6.00
2018-11-26T15:27:32.322Z,3.42
2018-11-26T15:30:00.607Z,8.53
2018-11-26T15:32:28.890Z,2.75
2018-11-26T15:34:57.243Z,4.12
2018-11-26T15:37:25.599Z,4.72
2018-11-26T15:39:53.914Z,5.47
2018-11-26T15:42:22.190Z,2.55
2018-11-26T15:44:50.545Z,3.70
2018-11-26T15:47:18.812Z,8.28
2018-11-26T15:49:47.089Z,3.77
2018-11-26T15:52:15.834Z,6.62
2018-11-26T15:54:44.515Z,9.05
2018-11-26T15:57:12.893Z,6.50
2018-11-26T15:59:41.139Z,7.60
2018-11-26T16:02:09.374Z,4.78
2018-11-26T16:04:37.611Z,2.83
2018-11-26T16:07:06.433Z,6.53
2018-11-26T16:09:34.903Z,4.15
2018-11-26T16:12:03.178Z,7.83
2018-11-26T16:14:31.450Z,3.42
2018-11-26T16:16:59.684Z,5.40
2018-11-26T16:19:27.937Z,9.28
2018-11-26T16:21:56.166Z,6.42
2018-11-26T16:24:24.426Z,4.25
2018-11-26T16:26:52.672Z,6.45
2018-11-26T16:29:20.898Z,5.33
2018-11-26T16:31:49.150Z,3.92
2018-11-26T16:34:17.395Z,6.80
2018-11-26T16:36:46.026Z,5.75
2018-11-26T16:39:14.383Z,7.60
2018-11-26T16:41:42.603Z,6.05
2018-11-26T16:44:15.034Z,5.00
2018-11-26T16:46:43.283Z,9.13
2018-11-26T16:49:11.648Z,5.15
2018-11-26T16:51:39.994Z,6.22
2018-11-26T16:54:08.199Z,9.00
2018-11-26T16:56:36.501Z,5.80
2018-11-26T16:59:05.116Z,4.65
2018-11-26T17:01:33.439Z,7.87
2018-11-26T17:04:01.666Z,4.87
2018-11-26T17:06:29.907Z,5.30
2018-11-26T17:08:58.281Z,6.28
2018-11-26T17:11:26.504Z,4.65
2018-11-26T17:13:54.793Z,6.65
2018-11-26T17:16:23.016Z,6.95
2018-11-26T17:18:51.310Z,6.42
2018-11-26T17:21:19.567Z,4.95
2018-11-26T17:23:47.847Z,8.10
2018-11-26T17:26:19.145Z,6.17
2018-11-26T17:28:47.379Z,6.83
2018-11-26T17:31:15.609Z,6.47
2018-11-26T17:33:43.811Z,9.28
2018-11-26T17:36:12.061Z,5.97
2018-11-26T17:38:40.310Z,9.40
2018-11-26T17:41:08.607Z,8.75
2018-11-26T17:43:36.828Z,5.35
2018-11-26T17:46:05.943Z,6.87
2018-11-26T17:48:34.174Z,5.53
2018-11-26T17:51:02.398Z,9.55
2018-11-26T17:53:30.672Z,6.40
2018-11-26T17:55:58.983Z,6.50
2018-11-26T17:58:28.725Z,10.95
2018-11-26T18:01:08.060Z,7.90
2018-11-26T18:03:37.632Z,8.90
2018-11-26T18:06:06.058Z,8.40
2018-11-26T18:08:34.388Z,7.62
2018-11-26T18:11:03.182Z,6.92
2018-11-26T18:13:31.588Z,8.98
2018-11-26T18:15:59.906Z,6.67
2018-11-26T18:18:28.417Z,6.95
2018-11-26T18:20:58.929Z,7.95
2018-11-26T18:23:27.232Z,9.78
2018-11-26T18:25:55.619Z,6.03
2018-11-26T18:28:24.137Z,6.87
2018-11-26T18:30:52.986Z,7.28
2018-11-26T18:33:21.257Z,7.08
2018-11-26T18:35:49.754Z,7.58
2018-11-26T18:38:18.170Z,5.72
2018-11-26T18:40:48.097Z,7.92
2018-11-26T18:43:16.366Z,11.30
2018-11-26T18:45:44.656Z,6.30
2018-11-26T18:48:14.060Z,9.28
2018-11-26T18:50:42.303Z,7.00
2018-11-26T18:53:10.567Z,9.65
2018-11-26T18:55:40.408Z,7.12
2018-11-26T18:58:09.938Z,7.83
2018-11-26T19:00:39.936Z,6.58
2018-11-26T19:03:08.296Z,14.30
2018-11-26T19:05:36.695Z,10.82
2018-11-26T19:08:06.043Z,7.25
2018-11-26T19:10:36.233Z,8.00
2018-11-26T19:13:11.057Z,10.78
2018-11-26T19:15:40.743Z,11.68
2018-11-26T19:18:11.551Z,6.95
2018-11-26T19:20:40.186Z,12.23
2018-11-26T19:23:08.925Z,7.12
2018-11-26T19:25:37.543Z,9.15
2018-11-26T19:28:05.872Z,9.85
2018-11-26T19:30:34.156Z,13.38
2018-11-26T19:33:02.572Z,11.35
2018-11-26T19:35:31.188Z,12.88
2018-11-26T19:37:59.493Z,9.70
2018-11-26T19:40:27.818Z,14.43
2018-11-26T19:42:56.114Z,6.78
2018-11-26T19:45:24.803Z,11.38
2018-11-26T19:47:53.498Z,10.28
2018-11-26T19:50:22.136Z,13.00
2018-11-26T19:52:52.038Z,10.20
2018-11-26T19:55:23.595Z,12.90
2018-11-26T19:57:55.537Z,10.48
2018-11-26T20:00:26.843Z,14.50
2018-11-26T20:02:56.743Z,9.45
2018-11-26T20:05:30.259Z,13.40
2018-11-26T20:07:59.687Z,14.50
2018-11-26T20:10:30.111Z,9.98
2018-11-26T20:12:58.960Z,12.53
2018-11-26T20:15:27.263Z,11.08
2018-11-26T20:17:59.037Z,12.30
2018-11-26T20:20:24.720Z,14.25
2018-11-26T20:22:53.825Z,11.22
2018-11-26T20:25:22.967Z,13.70
2018-11-26T20:27:52.284Z,8.33
2018-11-26T20:30:20.934Z,10.15
2018-11-26T20:32:50.871Z,9.63
2018-11-26T20:35:21.350Z,11.57
2018-11-26T20:37:50.455Z,9.70
2018-11-26T20:40:22.144Z,8.93
2018-11-26T20:42:56.758Z,9.35
2018-11-26T20:45:26.010Z,15.63
2018-11-26T20:50:53.064Z,7.72
2018-11-26T20:53:25.050Z,8.80
2018-11-26T20:55:55.322Z,10.13
2018-11-26T20:58:26.628Z,11.48
2018-11-26T21:00:55.656Z,12.78
2018-11-26T21:03:25.311Z,12.88
2018-11-26T21:05:54.357Z,11.00
2018-11-26T21:08:23.867Z,14.40
2018-11-26T21:10:52.254Z,12.93
2018-11-26T21:13:20.530Z,15.95
2018-11-26T21:15:48.757Z,12.98
2018-11-26T21:18:17.033Z,17.25
2018-11-26T21:20:46.729Z,12.30
2018-11-26T21:23:31.413Z,14.83
2018-11-26T21:26:01.029Z,10.55
2018-11-26T21:28:29.261Z,9.93
2018-11-26T21:30:57.503Z,8.03
2018-11-26T21:33:25.756Z,12.05
2018-11-26T21:35:54.030Z,9.50
2018-11-26T21:38:22.307Z,26.00
2018-11-26T21:40:50.557Z,12.07
2018-11-26T21:43:18.820Z,14.55
2018-11-26T21:45:48.869Z,12.78
2018-11-26T21:48:17.085Z,11.28
2018-11-26T21:50:45.301Z,14.80
2018-11-26T21:53:13.533Z,10.68
2018-11-26T21:55:41.745Z,11.20
2018-11-26T21:58:09.961Z,10.40
2018-11-26T22:00:38.956Z,21.52
2018-11-26T22:03:08.214Z,11.83
2018-11-26T22:05:37.554Z,34.50
2018-11-26T22:08:06.233Z,15.68
2018-11-26T22:10:34.617Z,15.15
2018-11-26T22:13:02.878Z,27.93
2018-11-26T22:15:31.073Z,13.15
2018-11-26T22:17:59.311Z,13.03
2018-11-26T22:20:28.930Z,13.65
2018-11-26T22:22:57.212Z,13.08
2018-11-26T22:25:25.476Z,11.93
2018-11-26T22:27:54.283Z,11.70
2018-11-26T22:30:26.542Z,11.80
2018-11-26T22:32:54.790Z,10.10
2018-11-26T22:35:23.032Z,10.95
2018-11-26T22:37:51.302Z,11.40
2018-11-26T22:40:20.534Z,14.47
2018-11-26T22:42:48.878Z,11.88
2018-11-26T22:45:21.005Z,9.95
2018-11-26T22:47:59.638Z,8.15
2018-11-26T22:50:27.914Z,11.05
2018-11-26T22:52:56.191Z,15.72
2018-11-26T22:55:24.406Z,9.38
2018-11-26T22:57:52.775Z,12.68
2018-11-26T23:00:29.030Z,9.68
2018-11-26T23:03:00.292Z,10.82
2018-11-26T23:05:28.554Z,11.53
2018-11-26T23:07:56.770Z,13.58
2018-11-26T23:10:25.014Z,10.32
2018-11-26T23:12:53.251Z,12.82
2018-11-26T23:15:21.507Z,11.78
2018-11-26T23:17:49.873Z,10.70
2018-11-26T23:20:18.999Z,11.88
2018-11-26T23:22:47.232Z,11.50
2018-11-26T23:25:18.839Z,10.55
2018-11-26T23:27:47.066Z,11.88
2018-11-26T23:30:20.406Z,13.40
2018-11-26T23:32:51.950Z,11.08
2018-11-26T23:35:20.195Z,11.53
2018-11-26T23:37:48.400Z,12.60
2018-11-26T23:40:16.640Z,11.48
2018-11-26T23:42:44.893Z,13.68
2018-11-26T23:45:14.348Z,13.10
2018-11-26T23:47:42.563Z,13.93
2018-11-26T23:50:11.769Z,13.20
2018-11-26T23:52:40.335Z,11.30
2018-11-26T23:55:13.156Z,11.80
2018-11-26T23:57:41.439Z,12.80
